createdAt,value
2023-04-09T00:02:01.979Z,35.40
2023-04-09T00:04:32.084Z,37.57
2023-04-09T00:07:02.671Z,38.70
2023-04-09T00:09:33.879Z,33.30
2023-04-09T00:12:06.627Z,40.63
2023-04-09T00:14:36.894Z,42.27
2023-04-09T00:17:07.533Z,35.40
2023-04-09T00:19:37.730Z,38.80
2023-04-09T00:22:08.751Z,39.70
2023-04-09T00:24:39.133Z,41.40
2023-04-09T00:27:09.609Z,40.50
2023-04-09T00:29:42.543Z,40.93
2023-04-09T00:32:13.129Z,38.97
2023-04-09T00:34:43.546Z,39.53
2023-04-09T00:37:17.473Z,37.13
2023-04-09T00:39:48.981Z,36.73
2023-04-09T00:42:36.699Z,38.37
2023-04-09T00:45:22.591Z,39.77
2023-04-09T00:48:08.534Z,46.10
2023-04-09T00:50:54.720Z,38.87
2023-04-09T00:53:23.468Z,41.63
2023-04-09T00:56:01.122Z,41.40
2023-04-09T00:58:31.665Z,43.17
2023-04-09T01:01:04.082Z,43.23
2023-04-09T01:03:40.922Z,45.10
2023-04-09T01:06:22.914Z,42.50
2023-04-09T01:09:03.477Z,39.97
2023-04-09T01:12:01.861Z,40.70
2023-04-09T01:14:36.876Z,44.47
2023-04-09T01:17:16.386Z,41.60
2023-04-09T01:20:11.878Z,40.67
2023-04-09T01:22:49.206Z,45.13
2023-04-09T01:25:32.616Z,41.10
2023-04-09T01:28:19.173Z,42.20
2023-04-09T01:30:52.511Z,39.57
2023-04-09T01:33:29.008Z,41.33
2023-04-09T01:36:01.173Z,39.80
2023-04-09T01:38:32.956Z,39.10
2023-04-09T01:41:11.772Z,38.33
2023-04-09T01:43:42.640Z,39.23
2023-04-09T01:46:15.422Z,47.07
2023-04-09T01:48:53.463Z,45.00
2023-04-09T01:51:23.786Z,42.40
2023-04-09T01:53:54.164Z,43.57
2023-04-09T01:56:27.842Z,44.40
2023-04-09T01:58:58.503Z,40.37
2023-04-09T02:01:34.501Z,38.90
2023-04-09T02:04:03.020Z,39.00
2023-04-09T02:06:46.230Z,42.60
2023-04-09T02:09:15.906Z,43.87
2023-04-09T02:11:42.864Z,43.07
2023-04-09T02:14:12.577Z,46.40
2023-04-09T02:16:40.113Z,45.07
2023-04-09T02:19:11.298Z,40.73
2023-04-09T02:21:43.766Z,44.03
2023-04-09T02:24:13.928Z,42.67
2023-04-09T02:26:44.420Z,41.83
2023-04-09T02:29:14.733Z,41.97
2023-04-09T02:31:45.498Z,45.73
2023-04-09T02:34:16.395Z,40.20
2023-04-09T02:36:47.014Z,41.53
2023-04-09T02:39:20.385Z,44.93
2023-04-09T02:41:51.628Z,39.00
2023-04-09T02:44:21.654Z,43.50
2023-04-09T02:46:52.479Z,44.63
2023-04-09T02:49:24.728Z,43.17
2023-04-09T02:51:55.612Z,39.93
2023-04-09T02:54:25.661Z,42.27
2023-04-09T02:57:00.356Z,43.47
2023-04-09T02:59:32.262Z,40.70
2023-04-09T03:02:02.043Z,43.13
2023-04-09T03:04:32.743Z,41.30
2023-04-09T03:07:03.819Z,41.63
2023-04-09T03:09:34.125Z,38.73
2023-04-09T03:12:05.270Z,38.93
2023-04-09T03:14:38.675Z,41.90
2023-04-09T03:17:08.923Z,43.80
2023-04-09T03:19:39.852Z,43.07
2023-04-09T03:22:10.099Z,44.90
2023-04-09T03:24:40.636Z,47.57
2023-04-09T03:27:10.964Z,48.37
2023-04-09T03:29:40.953Z,47.27
2023-04-09T03:32:14.188Z,46.90
2023-04-09T03:34:44.769Z,48.97
2023-04-09T03:37:15.588Z,44.37
2023-04-09T03:39:46.672Z,50.37
2023-04-09T03:42:17.878Z,44.17
2023-04-09T03:44:48.592Z,43.60
2023-04-09T03:47:19.636Z,43.20
2023-04-09T03:49:51.917Z,45.73
2023-04-09T03:52:22.959Z,44.80
2023-04-09T03:54:54.093Z,45.20
2023-04-09T03:57:27.676Z,42.67
2023-04-09T03:59:58.336Z,42.60
2023-04-09T04:02:32.885Z,43.20
2023-04-09T04:05:00.770Z,47.13
2023-04-09T04:07:32.168Z,44.90
2023-04-09T04:10:05.895Z,44.70
2023-04-09T04:12:35.144Z,44.53
2023-04-09T04:15:10.272Z,49.53
2023-04-09T04:17:40.726Z,46.10
2023-04-09T04:20:11.513Z,46.17
2023-04-09T04:22:45.646Z,44.97
2023-04-09T04:25:16.375Z,49.77
2023-04-09T04:27:46.948Z,46.73
2023-04-09T04:30:18.564Z,46.07
2023-04-09T04:32:49.651Z,45.10
2023-04-09T04:35:21.118Z,50.27
2023-04-09T04:37:51.243Z,43.90
2023-04-09T04:40:25.527Z,45.30
2023-04-09T04:42:56.138Z,44.20
2023-04-09T04:45:26.783Z,44.23
2023-04-09T04:47:57.330Z,47.37
2023-04-09T04:50:27.750Z,39.87
2023-04-09T04:52:58.348Z,47.33
2023-04-09T04:55:28.858Z,42.40
2023-04-09T04:58:03.663Z,47.50
2023-04-09T05:00:34.077Z,43.50
2023-04-09T05:03:04.909Z,41.57
2023-04-09T05:05:36.811Z,43.70
2023-04-09T05:08:07.451Z,44.37
2023-04-09T05:10:40.981Z,44.37
2023-04-09T05:13:08.968Z,45.83
2023-04-09T05:15:44.311Z,46.70
2023-04-09T05:18:14.724Z,43.70
2023-04-09T05:20:46.441Z,43.97
2023-04-09T05:23:17.262Z,42.93
2023-04-09T05:25:49.517Z,42.40
2023-04-09T05:28:18.918Z,42.97
2023-04-09T05:30:50.035Z,47.30
2023-04-09T05:33:22.725Z,43.33
2023-04-09T05:35:53.187Z,44.70
2023-04-09T05:38:24.113Z,46.53
2023-04-09T05:40:54.901Z,42.30
2023-04-09T05:43:25.350Z,47.37
2023-04-09T05:45:55.383Z,43.13
2023-04-09T05:48:26.650Z,44.30
2023-04-09T05:51:01.256Z,46.40
2023-04-09T05:53:31.720Z,44.60
2023-04-09T05:56:01.367Z,48.63
2023-04-09T05:58:31.790Z,41.27
2023-04-09T06:01:02.139Z,43.37
2023-04-09T06:03:32.979Z,47.47
2023-04-09T06:06:03.820Z,45.30
2023-04-09T06:08:38.511Z,45.70
2023-04-09T06:11:09.844Z,47.20
2023-04-09T06:13:40.986Z,44.40
2023-04-09T06:16:16.231Z,39.07
2023-04-09T06:18:48.923Z,42.50
2023-04-09T06:21:17.845Z,46.73
2023-04-09T06:23:48.603Z,46.27
2023-04-09T06:26:20.468Z,42.37
2023-04-09T06:28:51.644Z,45.07
2023-04-09T06:31:22.356Z,42.90
2023-04-09T06:33:56.560Z,43.60
2023-04-09T06:36:28.070Z,44.10
2023-04-09T06:38:59.100Z,50.10
2023-04-09T06:41:35.634Z,45.60
2023-04-09T06:44:06.503Z,43.67
2023-04-09T06:46:38.174Z,39.77
2023-04-09T06:49:08.960Z,45.80
2023-04-09T06:51:40.331Z,39.70
2023-04-09T06:54:10.850Z,42.27
2023-04-09T06:56:41.612Z,46.20
2023-04-09T06:59:17.542Z,44.57
2023-04-09T07:01:48.888Z,46.70
2023-04-09T07:04:19.618Z,48.07
2023-04-09T07:06:54.143Z,44.30
2023-04-09T07:09:23.847Z,45.23
2023-04-09T07:11:55.026Z,37.07
2023-04-09T07:14:25.474Z,42.97
2023-04-09T07:16:56.478Z,41.87
2023-04-09T07:19:27.157Z,39.80
2023-04-09T07:21:58.172Z,42.50
2023-04-09T07:24:32.341Z,41.83
2023-04-09T07:27:03.580Z,40.60
2023-04-09T07:29:33.725Z,35.17
2023-04-09T07:32:04.254Z,41.10
2023-04-09T07:34:34.906Z,38.43
2023-04-09T07:37:05.947Z,29.93
2023-04-09T07:39:36.352Z,32.37
2023-04-09T07:42:11.958Z,32.47
2023-04-09T07:44:43.130Z,36.33
2023-04-09T07:47:13.344Z,34.40
2023-04-09T07:49:44.073Z,31.50
2023-04-09T07:52:15.183Z,31.80
2023-04-09T07:54:45.296Z,32.57
2023-04-09T07:57:16.373Z,31.00
2023-04-09T07:59:50.443Z,31.93
2023-04-09T08:02:20.670Z,33.50
2023-04-09T08:04:51.340Z,32.73
2023-04-09T08:07:25.343Z,32.67
2023-04-09T08:09:56.044Z,28.30
2023-04-09T08:12:26.933Z,31.57
2023-04-09T08:14:57.426Z,29.57
2023-04-09T08:17:27.995Z,28.50
2023-04-09T08:19:58.500Z,30.00
2023-04-09T08:22:29.125Z,27.47
2023-04-09T08:25:02.820Z,26.13
2023-04-09T08:27:34.037Z,26.70
2023-04-09T08:30:04.826Z,29.40
2023-04-09T08:32:36.241Z,27.67
2023-04-09T08:35:06.728Z,28.53
2023-04-09T08:37:36.705Z,28.80
2023-04-09T08:40:08.391Z,24.87
2023-04-09T08:42:47.046Z,26.03
2023-04-09T08:45:13.347Z,24.20
2023-04-09T08:47:43.054Z,20.93
2023-04-09T08:50:13.989Z,26.53
2023-04-09T08:52:47.258Z,28.87
2023-04-09T08:55:15.239Z,23.13
2023-04-09T08:57:46.028Z,25.13
2023-04-09T09:00:20.347Z,24.90
2023-04-09T09:03:01.887Z,27.00
2023-04-09T09:05:45.945Z,24.97
2023-04-09T09:08:25.241Z,24.13
2023-04-09T09:10:51.891Z,20.30
2023-04-09T09:13:21.648Z,25.00
2023-04-09T09:15:55.590Z,24.47
2023-04-09T09:18:38.920Z,26.83
2023-04-09T09:21:16.924Z,21.20
2023-04-09T09:23:49.818Z,24.10
2023-04-09T09:26:26.744Z,22.30
2023-04-09T09:28:58.284Z,19.63
2023-04-09T09:31:28.756Z,20.00
2023-04-09T09:34:08.394Z,15.87
2023-04-09T09:36:39.090Z,14.60
2023-04-09T09:39:12.295Z,15.33
2023-04-09T09:41:43.877Z,17.10
2023-04-09T09:44:32.030Z,19.10
2023-04-09T09:47:03.983Z,19.20
2023-04-09T09:49:34.627Z,18.07
2023-04-09T09:52:10.154Z,22.33
2023-04-09T09:54:41.872Z,21.67
2023-04-09T09:57:13.194Z,23.87
2023-04-09T10:00:03.094Z,23.67
2023-04-09T10:02:43.063Z,23.90
2023-04-09T10:05:15.737Z,22.80
2023-04-09T10:07:48.629Z,22.33
2023-04-09T10:10:19.128Z,21.20
2023-04-09T10:12:54.093Z,22.20
2023-04-09T10:15:28.066Z,19.80
2023-04-09T10:17:59.038Z,18.60
2023-04-09T10:20:51.346Z,23.90
2023-04-09T10:23:41.598Z,16.87
2023-04-09T10:26:12.912Z,21.97
2023-04-09T10:28:42.602Z,21.47
2023-04-09T10:31:08.964Z,20.43
2023-04-09T10:33:38.763Z,22.33
2023-04-09T10:36:11.467Z,22.77
2023-04-09T10:38:40.280Z,20.37
2023-04-09T10:41:09.256Z,18.40
2023-04-09T10:43:42.720Z,20.97
2023-04-09T10:46:45.249Z,21.13
2023-04-09T10:49:17.298Z,24.00
2023-04-09T10:52:11.585Z,27.13
2023-04-09T10:54:45.389Z,21.80
2023-04-09T10:57:18.591Z,18.10
2023-04-09T10:59:54.469Z,19.00
2023-04-09T11:02:37.785Z,16.20
2023-04-09T11:05:19.036Z,19.20
2023-04-09T11:08:02.756Z,21.80
2023-04-09T11:10:33.530Z,18.27
2023-04-09T11:13:04.430Z,21.47
2023-04-09T11:15:36.267Z,19.80
2023-04-09T11:18:08.975Z,19.47
2023-04-09T11:20:39.858Z,23.53
2023-04-09T11:23:17.300Z,20.43
2023-04-09T11:25:50.501Z,24.73
2023-04-09T11:28:17.279Z,22.57
2023-04-09T11:30:46.084Z,23.00
2023-04-09T11:33:13.127Z,19.00
2023-04-09T11:35:39.342Z,18.63
2023-04-09T11:38:07.216Z,20.10
2023-04-09T11:40:33.412Z,21.07
2023-04-09T11:43:00.335Z,20.73
2023-04-09T11:45:27.997Z,22.23
2023-04-09T11:47:54.713Z,19.10
2023-04-09T11:50:21.160Z,16.67
2023-04-09T11:52:49.088Z,15.47
2023-04-09T11:55:26.037Z,19.20
2023-04-09T11:58:02.143Z,18.33
2023-04-09T12:00:28.644Z,16.70
2023-04-09T12:03:01.781Z,17.67
2023-04-09T12:05:30.392Z,15.13
2023-04-09T12:08:17.803Z,17.20
2023-04-09T12:10:44.750Z,16.73
2023-04-09T12:13:11.243Z,17.20
2023-04-09T12:15:40.502Z,17.30
2023-04-09T12:18:10.946Z,17.40
2023-04-09T12:20:38.976Z,14.80
2023-04-09T12:23:06.508Z,17.07
2023-04-09T12:25:38.023Z,16.47
2023-04-09T12:28:05.808Z,17.60
2023-04-09T12:30:32.796Z,17.00
2023-04-09T12:32:59.626Z,19.17
2023-04-09T12:35:26.202Z,15.70
2023-04-09T12:37:52.487Z,18.63
2023-04-09T12:40:19.250Z,14.70
2023-04-09T12:42:45.918Z,16.13
2023-04-09T12:45:13.768Z,17.77
2023-04-09T12:47:40.529Z,15.60
2023-04-09T12:50:08.601Z,15.83
2023-04-09T12:52:35.152Z,16.10
2023-04-09T12:55:02.240Z,15.90
2023-04-09T12:57:28.706Z,13.00
2023-04-09T12:59:55.187Z,12.20
2023-04-09T13:02:21.602Z,15.90
2023-04-09T13:04:48.297Z,13.47
2023-04-09T13:07:16.643Z,14.30
2023-04-09T13:09:43.933Z,14.60
2023-04-09T13:12:10.783Z,13.67
2023-04-09T13:14:40.296Z,14.13
2023-04-09T13:17:06.654Z,13.47
2023-04-09T13:19:32.871Z,14.20
2023-04-09T13:21:58.960Z,17.03
2023-04-09T13:24:25.328Z,14.93
2023-04-09T13:26:51.748Z,12.80
2023-04-09T13:29:17.892Z,15.17
2023-04-09T13:31:43.947Z,15.00
2023-04-09T13:34:10.210Z,13.27
2023-04-09T13:36:36.345Z,12.50
2023-04-09T13:39:05.342Z,13.90
2023-04-09T13:41:32.056Z,13.47
2023-04-09T13:43:58.921Z,11.63
2023-04-09T13:46:25.151Z,14.10
2023-04-09T13:48:51.512Z,12.30
2023-04-09T13:51:17.807Z,11.60
2023-04-09T13:53:45.095Z,10.13
2023-04-09T13:56:11.192Z,13.33
2023-04-09T13:58:37.261Z,11.87
2023-04-09T14:01:04.075Z,12.23
2023-04-09T14:03:34.423Z,13.40
2023-04-09T14:06:01.099Z,13.13
2023-04-09T14:08:29.624Z,13.17
2023-04-09T14:10:56.144Z,15.00
2023-04-09T14:13:22.249Z,13.10
2023-04-09T14:15:49.362Z,13.90
2023-04-09T14:18:15.489Z,14.60
2023-04-09T14:20:41.624Z,12.33
2023-04-09T14:23:07.729Z,12.23
2023-04-09T14:25:33.830Z,12.13
2023-04-09T14:27:59.967Z,11.70
2023-04-09T14:30:26.114Z,11.73
2023-04-09T14:32:52.258Z,12.10
2023-04-09T14:35:18.417Z,12.97
2023-04-09T14:37:46.227Z,15.60
2023-04-09T14:40:12.590Z,12.67
2023-04-09T14:42:40.434Z,14.83
2023-04-09T14:45:07.011Z,11.87
2023-04-09T14:47:33.173Z,14.03
2023-04-09T14:49:59.261Z,16.53
2023-04-09T14:52:25.426Z,12.27
2023-04-09T14:54:51.482Z,12.20
2023-04-09T14:57:17.512Z,12.70
2023-04-09T14:59:43.638Z,12.43
2023-04-09T15:02:10.500Z,15.20
2023-04-09T15:04:36.752Z,13.77
2023-04-09T15:07:02.860Z,14.67
2023-04-09T15:09:29.140Z,10.93
2023-04-09T15:11:56.520Z,12.50
2023-04-09T15:14:23.399Z,13.83
2023-04-09T15:16:49.841Z,12.83
2023-04-09T15:19:16.202Z,12.13
2023-04-09T15:21:43.132Z,11.73
2023-04-09T15:24:09.413Z,11.83
2023-04-09T15:26:35.907Z,13.57
2023-04-09T15:29:05.704Z,11.47
2023-04-09T15:31:32.328Z,13.60
2023-04-09T15:33:59.048Z,12.53
2023-04-09T15:36:27.051Z,12.17
2023-04-09T15:41:21.750Z,12.17
2023-04-09T15:43:48.061Z,12.43
2023-04-09T15:46:15.643Z,11.87
2023-04-09T15:48:42.037Z,12.47
2023-04-09T15:51:08.555Z,13.40
2023-04-09T15:53:35.144Z,11.70
2023-04-09T15:56:02.814Z,11.80
2023-04-09T15:58:29.064Z,10.77
2023-04-09T16:00:55.402Z,11.90
2023-04-09T16:03:21.600Z,10.57
2023-04-09T16:05:48.016Z,10.63
2023-04-09T16:08:14.145Z,9.53
2023-04-09T16:10:41.048Z,9.07
2023-04-09T16:13:07.436Z,9.30
2023-04-09T16:15:33.893Z,10.23
2023-04-09T16:18:00.201Z,10.20
2023-04-09T16:20:28.711Z,9.90
2023-04-09T16:22:55.166Z,10.50
2023-04-09T16:25:21.662Z,9.57
2023-04-09T16:27:47.885Z,10.50
2023-04-09T16:30:14.338Z,9.30
2023-04-09T16:32:40.792Z,9.47
2023-04-09T16:35:07.274Z,10.83
2023-04-09T16:37:34.498Z,10.17
2023-04-09T16:40:00.686Z,10.03
2023-04-09T16:42:27.028Z,10.57
2023-04-09T16:44:53.716Z,9.57
2023-04-09T16:47:20.395Z,9.60
2023-04-09T16:49:46.554Z,9.30
2023-04-09T16:52:13.085Z,9.90
2023-04-09T16:54:39.263Z,9.23
2023-04-09T16:57:05.720Z,9.77
2023-04-09T16:59:31.981Z,9.23
2023-04-09T17:01:58.305Z,9.57
2023-04-09T17:04:25.815Z,9.03
2023-04-09T17:06:51.976Z,9.27
2023-04-09T17:09:18.391Z,9.10
2023-04-09T17:11:46.237Z,9.57
2023-04-09T17:14:14.410Z,7.93
2023-04-09T17:16:40.813Z,8.27
2023-04-09T17:19:09.124Z,8.87
2023-04-09T17:21:35.990Z,8.63
2023-04-09T17:24:02.300Z,8.40
2023-04-09T17:26:28.643Z,8.80
2023-04-09T17:28:54.896Z,8.97
2023-04-09T17:31:23.282Z,9.27
2023-04-09T17:33:49.677Z,9.67
2023-04-09T17:36:19.933Z,8.70
2023-04-09T17:38:47.033Z,8.80
2023-04-09T17:41:13.126Z,8.10
2023-04-09T17:43:39.243Z,9.13
2023-04-09T17:46:08.080Z,9.47
2023-04-09T17:48:36.319Z,9.50
2023-04-09T17:51:02.955Z,8.87
2023-04-09T17:53:29.050Z,9.30
2023-04-09T17:55:55.140Z,9.00
2023-04-09T17:58:21.867Z,9.10
2023-04-09T18:00:48.043Z,8.90
2023-04-09T18:03:14.863Z,9.67
2023-04-09T18:05:41.308Z,9.10
2023-04-09T18:08:07.469Z,19.87
2023-04-09T18:10:33.818Z,15.27
2023-04-09T18:13:00.116Z,14.80
2023-04-09T18:15:26.451Z,14.77
2023-04-09T18:17:52.745Z,12.70
2023-04-09T18:20:18.895Z,17.13
2023-04-09T18:22:45.534Z,13.33
2023-04-09T18:25:11.668Z,13.90
2023-04-09T18:27:37.780Z,11.63
2023-04-09T18:30:04.421Z,9.70
2023-04-09T18:32:31.545Z,9.97
2023-04-09T18:34:57.678Z,9.33
2023-04-09T18:37:23.880Z,9.27
2023-04-09T18:39:50.156Z,11.37
2023-04-09T18:42:16.241Z,15.23
2023-04-09T18:44:42.348Z,11.87
2023-04-09T18:47:08.672Z,10.07
2023-04-09T18:49:35.450Z,10.23
2023-04-09T18:52:02.090Z,11.10
2023-04-09T18:54:28.192Z,10.60
2023-04-09T18:56:54.295Z,10.13
2023-04-09T18:59:21.073Z,10.30
2023-04-09T19:01:47.214Z,11.30
2023-04-09T19:04:13.543Z,10.83
2023-04-09T19:06:40.115Z,10.30
2023-04-09T19:09:06.800Z,11.20
2023-04-09T19:11:32.893Z,10.17
2023-04-09T19:13:59.003Z,10.77
2023-04-09T19:16:25.433Z,10.97
2023-04-09T19:18:51.808Z,11.17
2023-04-09T19:21:17.956Z,10.63
2023-04-09T19:23:44.894Z,12.40
2023-04-09T19:26:11.152Z,10.40
2023-04-09T19:28:37.252Z,9.53
2023-04-09T19:31:05.287Z,9.47
2023-04-09T19:33:31.806Z,9.90
2023-04-09T19:35:57.997Z,10.50
2023-04-09T19:38:24.205Z,9.80
2023-04-09T19:40:50.268Z,10.00
2023-04-09T19:43:16.353Z,10.00
2023-04-09T19:45:42.798Z,10.83
2023-04-09T19:48:08.949Z,9.03
2023-04-09T19:50:39.717Z,10.33
2023-04-09T19:53:06.289Z,10.77
2023-04-09T19:55:33.234Z,9.70
2023-04-09T19:57:59.419Z,9.97
2023-04-09T20:00:25.975Z,11.60
2023-04-09T20:02:52.732Z,13.47
2023-04-09T20:05:20.385Z,11.50
2023-04-09T20:07:47.342Z,10.67
2023-04-09T20:10:13.401Z,11.03
2023-04-09T20:12:39.642Z,11.10
2023-04-09T20:15:07.954Z,11.20
2023-04-09T20:17:35.438Z,11.20
2023-04-09T20:20:01.543Z,17.40
2023-04-09T20:22:28.780Z,12.93
2023-04-09T20:24:55.806Z,12.77
2023-04-09T20:27:21.941Z,15.00
2023-04-09T20:29:48.710Z,13.03
2023-04-09T20:32:14.907Z,14.83
2023-04-09T20:34:41.067Z,18.40
2023-04-09T20:37:07.116Z,15.10
2023-04-09T20:39:33.225Z,13.13
2023-04-09T20:41:59.286Z,16.10
2023-04-09T20:44:26.782Z,19.13
2023-04-09T20:46:52.873Z,29.90
2023-04-09T20:49:19.039Z,38.73
2023-04-09T20:51:45.586Z,20.30
2023-04-09T20:54:11.727Z,15.53
2023-04-09T20:56:37.814Z,15.70
2023-04-09T20:59:03.937Z,15.20
2023-04-09T21:01:31.462Z,20.60
2023-04-09T21:03:57.712Z,15.77
2023-04-09T21:06:23.977Z,15.20
2023-04-09T21:08:50.409Z,17.27
2023-04-09T21:11:16.644Z,18.53
2023-04-09T21:13:53.657Z,14.30
2023-04-09T21:16:21.666Z,15.07
2023-04-09T21:18:48.225Z,14.77
2023-04-09T21:21:14.288Z,20.23
2023-04-09T21:23:40.844Z,17.50
2023-04-09T21:26:08.255Z,18.40
2023-04-09T21:28:34.324Z,15.63
2023-04-09T21:31:00.441Z,16.53
2023-04-09T21:33:28.554Z,16.80
2023-04-09T21:35:56.310Z,15.47
2023-04-09T21:38:22.443Z,13.67
2023-04-09T21:40:48.584Z,16.53
2023-04-09T21:43:14.921Z,18.67
2023-04-09T21:45:41.078Z,14.00
2023-04-09T21:48:08.476Z,13.60
2023-04-09T21:50:35.181Z,15.40
2023-04-09T21:53:02.352Z,17.63
2023-04-09T21:55:28.748Z,15.37
2023-04-09T21:57:55.513Z,13.20
2023-04-09T22:00:21.817Z,15.53
2023-04-09T22:02:48.005Z,14.13
2023-04-09T22:05:14.143Z,13.40
2023-04-09T22:07:41.727Z,13.23
2023-04-09T22:10:09.266Z,14.37
2023-04-09T22:12:36.475Z,13.80
2023-04-09T22:15:04.150Z,13.40
2023-04-09T22:17:30.416Z,13.83
2023-04-09T22:19:56.715Z,14.60
2023-04-09T22:22:22.805Z,13.70
2023-04-09T22:24:48.924Z,15.57
2023-04-09T22:27:15.419Z,12.57
2023-04-09T22:29:41.569Z,13.07
2023-04-09T22:32:08.497Z,13.00
2023-04-09T22:34:34.597Z,12.80
2023-04-09T22:37:01.330Z,12.00
2023-04-09T22:39:27.420Z,11.53
2023-04-09T22:41:53.533Z,13.57
2023-04-09T22:44:19.957Z,13.27
2023-04-09T22:46:46.366Z,11.60
2023-04-09T22:49:12.495Z,12.20
2023-04-09T22:51:40.903Z,12.47
2023-04-09T22:54:07.915Z,12.47
2023-04-09T22:56:34.025Z,12.93
2023-04-09T22:59:00.180Z,15.40
2023-04-09T23:01:26.458Z,12.50
2023-04-09T23:03:52.657Z,15.93
2023-04-09T23:06:18.815Z,12.83
2023-04-09T23:08:45.125Z,12.10
2023-04-09T23:11:11.558Z,18.47
2023-04-09T23:13:38.071Z,15.40
2023-04-09T23:16:08.391Z,13.90
2023-04-09T23:18:36.006Z,12.70
2023-04-09T23:21:06.330Z,13.13
2023-04-09T23:23:33.303Z,12.37
2023-04-09T23:25:59.376Z,12.70
2023-04-09T23:28:25.507Z,12.63
2023-04-09T23:30:51.654Z,14.27
2023-04-09T23:33:18.809Z,14.13
2023-04-09T23:35:46.110Z,15.60
2023-04-09T23:38:12.361Z,15.33
2023-04-09T23:40:38.554Z,18.10
2023-04-09T23:43:04.684Z,12.47
2023-04-09T23:45:31.010Z,11.80
2023-04-09T23:47:57.124Z,13.70
2023-04-09T23:50:23.847Z,14.50
2023-04-09T23:52:50.746Z,12.90
2023-04-09T23:55:16.851Z,13.07
2023-04-09T23:57:42.993Z,15.80
